EDDT Airport Information

Runway Information
Runway 08L Length 9918 ft width 151 ft
Elevation 110 ft Threshold 0 ft Heading 81
Runway 26R Length 9918 ft Width 151 ft
Elevation 117 ft Threshold 0 ft Heading 261
Runway 08R Length 7966 ft width 151 ft
Elevation 109 ft Threshold 341 ft Heading 81
Runway 26L Length 7966 ft Width 151 ft
Elevation 122 ft Threshold 722 ft Heading 261
Airport Frequencies
Type AFIS Name BERLIN INF Frequency 132.65 MHZ
Type APP Name BERLIN ARR Frequency 119.625 MHZ
Type ATIS Name ATIS Frequency 125.9 MHZ
Type DEP Name BERLIN DEP Frequency 120.625 MHZ
Type DIR Name BERLIN DIR Frequency 136.1 MHZ
Type GND Name GND Frequency 121.925 MHZ
Type RMP Name BERLIN MIL Frequency 136 MHZ
Type TWR Name TWR Frequency 124.525 MHZ
Airport Navaids
Type NDB Name Tegel East Frequency 321 KHZ
Type NDB Name Tegel West Frequency 392 KHZ
Type VOR-DME Name Tegel Frequency 112300 KHZ
Airport Weather Information & NOTAM
ADDS - METARS form results

(2049 UTC 25 April 2019)
Data provider http://aviationweather.gov/metar/data/
 
METAR text: EDDT 252020Z 08005KT CAVOK 19/05 Q1010 NOSIG
Conditions at: EDDT (BERLIN/TEGEL (FA, DE) observed 2020 UTC 25 April 2019
Temperature: 19.0°C (66°F)
Dewpoint: 5.0°C (41°F) [RH = 40%]
Pressure (altimeter): 29.82 inches Hg (1010.0 mb)
Winds: from the E (80 degrees) at 6 MPH (5 knots; 2.6 m/s)
Visibility: 6 or more miles (10+ km)
Ceiling: ceiling and visibility are OK
Clouds: unknown
Weather: no significant weather observed at this time

METAR text: EDDT 251950Z 07005KT CAVOK 20/05 Q1010 NOSIG
Conditions at: EDDT (BERLIN/TEGEL (FA, DE) observed 1950 UTC 25 April 2019
Temperature: 20.0°C (68°F)
Dewpoint: 5.0°C (41°F) [RH = 37%]
Pressure (altimeter): 29.82 inches Hg (1010.0 mb)
Winds: from the ENE (70 degrees) at 6 MPH (5 knots; 2.6 m/s)
Visibility: 6 or more miles (10+ km)
Ceiling: ceiling and visibility are OK
Clouds: unknown
Weather: no significant weather observed at this time

Forecast for: EDDT (BERLIN/TEGEL (FA, DE)
Text: TAF EDDT 251700Z 2518/2618 09006KT CAVOK
Forecast period: 1800 UTC 25 April 2019 to 0800 UTC 26 April 2019
Forecast type: FROM: standard forecast or significant change
Winds: from the E (90 degrees) at 7 MPH (6 knots; 3.1 m/s)
Visibility: 6 or more miles 10+ km)
Ceiling: unknown
Clouds: missing
Weather: NSW  (no significant weather)
Text: BECMG 2608/2610 27009KT
Forecast period: 0800 to 1800 UTC 26 April 2019
Forecast type: BECOMING: Conditions expected to become as follows by 1000 UTC 26 April 2019
Winds: from the W (270 degrees) at 10 MPH (9 knots; 4.6 m/s)
Visibility: 6 or more miles 10+ km)
Ceiling: unknown
Clouds: missing
Weather: NSW  (no significant weather)